Time;durP1;ratioP1;P1;durP2;ratioP2;P2;SDS_P1;SDS_P2;PMS_P1;PMS_P2;Temp;Humidity;BMP_temperature;BMP_pressure;BME280_temperature;BME280_humidity;BME280_pressure;Samples;Min_cycle;Max_cycle;Signal;HPM_P1;HPM_P2
2022/11/29 00:01:22;;;;;;;;;;;;;;;4.75;80.46;97796.00;5091416;28;19929;-73
2022/11/29 00:03:51;;;;;;;;;;;;;;;4.68;80.61;97789.00;5093203;28;19958;-73
2022/11/29 00:06:20;;;;;;;;;;;;;;;4.69;81.22;97796.03;5096057;28;20345;-72
2022/11/29 00:08:48;;;;;;;;;;;;;;;4.66;81.17;97790.38;5110109;28;19977;-73
2022/11/29 00:12:10;;;;;;;;;;;;;;;4.58;81.00;97789.09;5076409;28;19935;-73
2022/11/29 00:14:08;;;;;;;;;;;;;;;4.61;81.31;97783.13;5080387;28;20377;-73
2022/11/29 00:16:36;;;;;;;;;;;;;;;4.56;81.77;97776.97;5096085;28;19924;-73
2022/11/29 00:19:04;;;;;;;;;;;;;;;4.58;81.46;97780.19;5094371;28;19924;-73
2022/11/29 00:21:32;;;;;;;;;;;;;;;4.57;80.59;97781.25;5089031;28;19929;-73
2022/11/29 00:24:01;;;;;;;;;;;;;;;4.58;80.89;97777.47;5089157;28;20004;-74
2022/11/29 00:26:29;;;;;;;;;;;;;;;4.56;81.00;97771.59;5095969;28;19924;-74
2022/11/29 00:28:59;;;;;;;;;;;;;;;4.60;81.24;97770.75;5095661;28;19924;-74
2022/11/29 00:37:13;;;;;;;;;;;;;;;4.59;81.08;97776.44;5083964;28;19958;-74
2022/11/29 00:39:45;;;;;;;;;;;;;;;4.60;81.03;97770.75;5101950;28;19964;-73
2022/11/29 00:45:06;;;;;;;;;;;;;;;4.52;81.74;97770.53;5094207;28;19975;-74
2022/11/29 00:47:35;;;;;;;;;;;;;;;4.54;81.21;97771.88;5095573;28;20369;-73
2022/11/29 00:50:04;;;;;;;;;;;;;;;4.44;81.51;97771.91;5103637;28;19923;-73
2022/11/29 00:52:33;;;;;;;;;;;;;;;4.37;81.53;97766.81;5095245;28;20022;-74
2022/11/29 00:55:01;;;;;;;;;;;;;;;4.39;81.74;97771.94;5091416;28;19924;-73
2022/11/29 00:57:29;;;;;;;;;;;;;;;4.39;81.78;97763.84;5094585;28;19931;-74
2022/11/29 00:59:56;;;;;;;;;;;;;;;4.38;81.42;97770.31;5082432;28;20377;-76
2022/11/29 01:02:25;;;;;;;;;;;;;;;4.36;81.52;97770.56;5093384;28;20260;-73
2022/11/29 01:04:55;;;;;;;;;;;;;;;4.41;81.03;97762.50;5090422;28;19924;-73
2022/11/29 01:07:24;;;;;;;;;;;;;;;4.46;80.90;97759.78;5093332;28;19954;-74
2022/11/29 01:09:52;;;;;;;;;;;;;;;4.52;80.98;97765.94;5095023;28;19966;-73
2022/11/29 01:12:21;;;;;;;;;;;;;;;4.54;80.91;97766.50;5080885;28;20297;-73
2022/11/29 01:14:49;;;;;;;;;;;;;;;4.50;81.33;97765.44;5095415;28;20353;-73
2022/11/29 01:17:42;;;;;;;;;;;;;;;4.45;81.28;97765.44;5122354;28;20003;-73
2022/11/29 01:20:14;;;;;;;;;;;;;;;4.39;81.59;97766.53;5130796;27;20404;-73
2022/11/29 01:23:03;;;;;;;;;;;;;;;4.45;81.69;97765.44;5093753;28;19930;-73
2022/11/29 01:25:33;;;;;;;;;;;;;;;4.41;81.82;97767.88;5093240;28;19993;-73
2022/11/29 01:28:02;;;;;;;;;;;;;;;4.41;81.75;97769.75;5092918;28;19978;-73
2022/11/29 01:30:30;;;;;;;;;;;;;;;4.38;81.86;97767.63;5094587;28;19988;-73
2022/11/29 01:32:58;;;;;;;;;;;;;;;4.37;82.31;97763.34;5085098;28;20344;-73
2022/11/29 01:35:28;;;;;;;;;;;;;;;4.36;82.12;97769.78;5074534;28;19932;-73
2022/11/29 01:37:57;;;;;;;;;;;;;;;4.40;82.11;97770.84;5086933;28;19942;-73
2022/11/29 01:40:25;;;;;;;;;;;;;;;4.48;81.88;97770.28;5101287;28;19945;-73
2022/11/29 01:42:53;;;;;;;;;;;;;;;4.47;82.05;97771.34;5094675;28;20282;-73
2022/11/29 01:45:28;;;;;;;;;;;;;;;4.39;81.75;97770.03;5094436;28;19989;-73
2022/11/29 01:47:57;;;;;;;;;;;;;;;4.42;82.13;97763.28;5088491;28;19924;-73
2022/11/29 01:50:25;;;;;;;;;;;;;;;4.35;81.92;97770.84;5092562;28;19924;-73
2022/11/29 01:52:55;;;;;;;;;;;;;;;4.34;82.13;97763.88;5078225;28;19924;-74
2022/11/29 01:55:22;;;;;;;;;;;;;;;4.33;81.91;97759.59;5076014;28;19928;-73
2022/11/29 01:57:50;;;;;;;;;;;;;;;4.33;81.96;97755.00;5074918;28;20412;-73
2022/11/29 02:00:19;;;;;;;;;;;;;;;4.33;81.65;97751.50;5086042;28;20314;-73
2022/11/29 02:02:47;;;;;;;;;;;;;;;4.41;81.75;97772.44;5093550;28;19928;-73
2022/11/29 02:05:17;;;;;;;;;;;;;;;4.44;81.68;97759.25;5074408;28;19924;-73
2022/11/29 02:07:46;;;;;;;;;;;;;;;4.46;81.72;97761.66;5082907;28;19924;-73
2022/11/29 02:10:16;;;;;;;;;;;;;;;4.40;81.60;97760.09;5093885;28;19928;-73
2022/11/29 02:12:49;;;;;;;;;;;;;;;4.46;81.60;97764.34;5093580;28;19958;-73
2022/11/29 02:15:27;;;;;;;;;;;;;;;4.40;81.34;97760.09;5092602;28;20273;-73
2022/11/29 02:17:58;;;;;;;;;;;;;;;4.41;81.67;97761.69;5092324;28;19924;-73
2022/11/29 02:20:42;;;;;;;;;;;;;;;4.42;81.34;97760.59;5082236;28;19966;-73
2022/11/29 02:26:21;;;;;;;;;;;;;;;4.45;80.96;97755.47;5091657;28;20059;-74
2022/11/29 02:29:27;;;;;;;;;;;;;;;4.49;81.06;97753.06;5073408;28;19935;-73
2022/11/29 02:32:03;;;;;;;;;;;;;;;4.53;80.98;97759.50;5075867;28;20353;-74
2022/11/29 02:34:47;;;;;;;;;;;;;;;4.49;80.86;97761.13;5088055;28;19931;-73
2022/11/29 02:37:18;;;;;;;;;;;;;;;4.44;81.11;97758.47;5059399;28;19970;-73
2022/11/29 02:39:52;;;;;;;;;;;;;;;4.30;81.40;97749.34;5077544;28;19963;-73
2022/11/29 02:42:27;;;;;;;;;;;;;;;4.36;81.27;97750.94;5073047;28;19925;-73
2022/11/29 02:45:03;;;;;;;;;;;;;;;4.38;81.26;97751.50;5083067;28;20384;-73
2022/11/29 02:47:55;;;;;;;;;;;;;;;4.37;81.66;97760.66;5079402;28;19938;-73
2022/11/29 02:50:32;;;;;;;;;;;;;;;4.30;81.91;97757.44;5088925;28;19954;-74
2022/11/29 02:53:04;;;;;;;;;;;;;;;4.31;81.75;97756.34;5098151;28;20096;-73
2022/11/29 02:55:34;;;;;;;;;;;;;;;4.30;82.16;97763.59;5097789;28;19936;-73
2022/11/29 02:58:08;;;;;;;;;;;;;;;4.30;81.84;97762.81;5079749;28;19974;-73
2022/11/29 03:00:37;;;;;;;;;;;;;;;4.31;81.83;97769.78;5060637;28;19990;-73
2022/11/29 03:03:33;;;;;;;;;;;;;;;4.32;81.57;97764.16;5059419;28;19932;-73
2022/11/29 03:06:05;;;;;;;;;;;;;;;4.37;81.59;97766.81;5077329;28;20075;-73
2022/11/29 03:08:34;;;;;;;;;;;;;;;4.36;81.60;97765.19;5091660;28;19982;-74
2022/11/29 03:11:04;;;;;;;;;;;;;;;4.35;81.74;97770.84;5077571;28;20385;-73
2022/11/29 03:13:41;;;;;;;;;;;;;;;4.40;81.42;97770.84;5084131;28;20321;-74
2022/11/29 03:16:11;;;;;;;;;;;;;;;4.39;81.18;97774.63;5095032;28;19924;-73
2022/11/29 03:18:45;;;;;;;;;;;;;;;4.34;81.28;97771.94;5097005;28;20300;-74
2022/11/29 03:21:18;;;;;;;;;;;;;;;4.35;81.51;97778.94;5067697;28;20381;-73
2022/11/29 03:23:48;;;;;;;;;;;;;;;4.32;81.52;97776.81;5097364;28;20365;-73
2022/11/29 03:26:17;;;;;;;;;;;;;;;4.33;81.47;97776.53;5095267;28;19924;-74
2022/11/29 03:29:12;;;;;;;;;;;;;;;4.23;81.66;97776.53;5067851;28;19952;-74
2022/11/29 03:31:43;;;;;;;;;;;;;;;4.39;81.51;97786.19;5077655;28;19939;-74
2022/11/29 03:34:14;;;;;;;;;;;;;;;4.40;81.67;97786.97;5077732;28;19925;-73
2022/11/29 03:39:49;;;;;;;;;;;;;;;4.44;81.21;97785.34;5073793;28;19932;-73
2022/11/29 03:42:19;;;;;;;;;;;;;;;4.44;81.49;97790.75;5084283;28;19924;-74
2022/11/29 03:44:49;;;;;;;;;;;;;;;4.37;81.61;97792.91;5096175;28;20358;-74
2022/11/29 03:47:19;;;;;;;;;;;;;;;4.40;81.72;97785.09;5058078;28;19924;-73
2022/11/29 03:49:49;;;;;;;;;;;;;;;4.40;81.75;97793.16;5062829;28;19932;-73
2022/11/29 03:52:21;;;;;;;;;;;;;;;4.42;82.38;97792.88;5038220;28;19963;-73
2022/11/29 03:54:53;;;;;;;;;;;;;;;4.41;81.83;97793.97;5082942;28;19924;-73
2022/11/29 03:57:25;;;;;;;;;;;;;;;4.40;82.00;97792.34;5075608;28;19929;-73
2022/11/29 03:59:56;;;;;;;;;;;;;;;4.36;82.40;97788.59;5048814;28;20420;-74
2022/11/29 04:02:40;;;;;;;;;;;;;;;4.35;82.42;97784.31;5063568;28;19929;-73
2022/11/29 04:05:16;;;;;;;;;;;;;;;4.37;82.75;97792.91;5064039;28;20359;-73
2022/11/29 04:07:47;;;;;;;;;;;;;;;4.30;82.58;97778.94;5057481;28;19982;-73
2022/11/29 04:10:17;;;;;;;;;;;;;;;4.27;83.20;97782.19;5076267;28;19924;-73
2022/11/29 04:12:49;;;;;;;;;;;;;;;4.27;83.21;97787.56;5057793;28;19940;-74
2022/11/29 04:15:41;;;;;;;;;;;;;;;4.24;83.14;97790.78;5075985;28;20315;-74
2022/11/29 04:18:46;;;;;;;;;;;;;;;4.22;83.25;97785.69;5052016;28;20262;-73
2022/11/29 04:21:40;;;;;;;;;;;;;;;4.27;83.15;97787.56;5047640;28;20539;-73
2022/11/29 04:24:18;;;;;;;;;;;;;;;4.26;83.09;97788.63;5044310;28;19951;-73
2022/11/29 04:26:58;;;;;;;;;;;;;;;4.30;82.98;97789.69;5062595;28;19932;-73
2022/11/29 04:29:31;;;;;;;;;;;;;;;4.33;82.95;97791.84;5057452;28;19925;-74
2022/11/29 04:32:38;;;;;;;;;;;;;;;4.35;83.11;97795.06;5061013;28;20296;-74
2022/11/29 04:35:12;;;;;;;;;;;;;;;4.30;82.99;97795.06;5074920;28;19932;-73
2022/11/29 04:37:49;;;;;;;;;;;;;;;4.30;83.33;97793.19;5063794;28;20373;-73
2022/11/29 04:40:26;;;;;;;;;;;;;;;4.26;82.98;97804.75;5074492;28;19955;-73
2022/11/29 04:43:01;;;;;;;;;;;;;;;4.32;83.15;97807.19;5055828;28;19932;-73
2022/11/29 04:45:43;;;;;;;;;;;;;;;4.34;83.43;97809.59;5051150;28;19924;-73
2022/11/29 04:48:44;;;;;;;;;;;;;;;4.29;83.37;97798.84;5070980;28;19928;-73
2022/11/29 04:51:15;;;;;;;;;;;;;;;4.35;83.31;97801.25;5115031;28;19969;-73
2022/11/29 04:53:48;;;;;;;;;;;;;;;4.33;83.54;97813.38;5088954;28;19925;-73
2022/11/29 04:56:23;;;;;;;;;;;;;;;4.31;83.69;97818.19;5074251;28;19925;-74
2022/11/29 04:58:57;;;;;;;;;;;;;;;4.35;84.06;97812.00;5061448;28;19936;-73
2022/11/29 05:01:28;;;;;;;;;;;;;;;4.31;84.18;97815.50;5095021;28;19928;-73
2022/11/29 05:04:24;;;;;;;;;;;;;;;4.44;83.37;97809.56;5090940;28;19924;-73
2022/11/29 05:06:58;;;;;;;;;;;;;;;4.53;82.92;97815.16;5075798;28;19935;-73
2022/11/29 05:09:36;;;;;;;;;;;;;;;4.44;83.73;97823.03;5075527;28;20369;-73
2022/11/29 05:12:08;;;;;;;;;;;;;;;4.59;83.14;97822.16;5101332;28;19970;-73
2022/11/29 05:15:05;;;;;;;;;;;;;;;4.46;83.19;97824.34;5096289;28;19931;-74
2022/11/29 05:17:38;;;;;;;;;;;;;;;4.51;83.06;97822.72;5094079;28;19935;-73
2022/11/29 05:20:28;;;;;;;;;;;;;;;4.51;82.81;97828.91;5081069;28;19954;-73
2022/11/29 05:23:00;;;;;;;;;;;;;;;4.51;83.11;97831.59;5092066;28;19932;-74
2022/11/29 05:25:32;;;;;;;;;;;;;;;4.53;83.57;97834.84;5058898;28;19924;-73
2022/11/29 05:28:03;;;;;;;;;;;;;;;4.51;83.53;97833.47;5076367;28;20354;-73
2022/11/29 05:30:50;;;;;;;;;;;;;;;4.56;83.57;97838.84;5073728;28;19942;-73
2022/11/29 05:33:21;;;;;;;;;;;;;;;4.49;83.67;97833.75;5074652;28;19992;-73
2022/11/29 05:36:33;;;;;;;;;;;;;;;4.51;83.78;97836.97;5080753;28;19981;-73
2022/11/29 05:39:13;;;;;;;;;;;;;;;4.49;83.98;97838.34;5093115;28;19928;-74
2022/11/29 05:41:45;;;;;;;;;;;;;;;4.51;84.04;97844.25;5095155;28;20365;-73
2022/11/29 05:44:15;;;;;;;;;;;;;;;4.49;84.26;97841.03;5075615;28;19924;-73
2022/11/29 05:47:17;;;;;;;;;;;;;;;4.53;84.26;97840.22;5096787;28;20389;-72
2022/11/29 05:49:54;;;;;;;;;;;;;;;4.52;84.54;97843.16;5070449;28;19928;-72
2022/11/29 05:52:24;;;;;;;;;;;;;;;4.52;84.54;97843.16;5098124;28;19924;-73
2022/11/29 05:55:10;;;;;;;;;;;;;;;4.46;84.64;97847.75;5067794;28;20285;-75
2022/11/29 05:57:41;;;;;;;;;;;;;;;4.43;84.74;97845.63;5072990;28;19924;-76
2022/11/29 06:00:13;;;;;;;;;;;;;;;4.56;84.64;97855.00;5066316;28;19924;-75
2022/11/29 06:02:44;;;;;;;;;;;;;;;4.58;84.48;97859.03;5081948;28;19970;-75
2022/11/29 06:05:17;;;;;;;;;;;;;;;4.59;84.79;97854.47;5064988;28;19931;-76
2022/11/29 06:07:47;;;;;;;;;;;;;;;4.57;84.55;97856.59;5071330;28;19924;-76
2022/11/29 06:10:40;;;;;;;;;;;;;;;4.70;84.27;97862.22;5084516;28;19924;-75
2022/11/29 06:13:36;;;;;;;;;;;;;;;4.65;84.37;97859.53;5080653;28;19928;-75
2022/11/29 06:16:12;;;;;;;;;;;;;;;4.64;84.24;97857.94;5084659;28;20031;-75
2022/11/29 06:18:55;;;;;;;;;;;;;;;4.65;84.16;97854.16;5073812;28;19931;-74
2022/11/29 06:21:26;;;;;;;;;;;;;;;4.59;84.58;97865.22;5079938;28;19947;-75
2022/11/29 06:24:17;;;;;;;;;;;;;;;4.61;85.00;97863.84;5082033;28;19935;-76
2022/11/29 06:26:55;;;;;;;;;;;;;;;4.64;84.72;97870.59;5078965;28;19968;-75
2022/11/29 06:29:31;;;;;;;;;;;;;;;4.63;84.97;97875.13;5075890;28;20373;-74
2022/11/29 06:32:27;;;;;;;;;;;;;;;4.68;84.85;97875.13;5083238;28;19931;-75
2022/11/29 06:34:58;;;;;;;;;;;;;;;4.68;84.50;97874.31;5085435;28;19936;-75
2022/11/29 06:37:27;;;;;;;;;;;;;;;4.69;84.27;97882.13;5085483;28;19990;-75
2022/11/29 06:42:48;;;;;;;;;;;;;;;4.72;84.58;97883.47;5061572;28;19924;-75
2022/11/29 06:45:16;;;;;;;;;;;;;;;4.69;84.31;97878.66;5068843;28;19932;-74
2022/11/29 06:47:46;;;;;;;;;;;;;;;4.72;84.54;97881.56;5089387;28;19974;-75
2022/11/29 06:50:20;;;;;;;;;;;;;;;4.72;84.68;97886.16;5082616;28;19944;-76
2022/11/29 06:55:43;;;;;;;;;;;;;;;4.74;84.25;97889.41;5086097;28;19934;-74
2022/11/29 06:58:14;;;;;;;;;;;;;;;4.70;84.21;97893.72;5089523;28;19985;-75
2022/11/29 07:03:43;;;;;;;;;;;;;;;4.68;84.99;97896.66;5082331;28;19924;-75
2022/11/29 07:06:20;;;;;;;;;;;;;;;4.69;84.69;97898.28;5096869;28;19924;-75
2022/11/29 07:08:49;;;;;;;;;;;;;;;4.72;84.63;97897.72;5082532;28;19974;-76
2022/11/29 07:11:17;;;;;;;;;;;;;;;4.72;84.57;97897.72;5083880;28;19950;-75
2022/11/29 07:13:46;;;;;;;;;;;;;;;4.76;84.87;97905.25;5087603;28;19966;-75
2022/11/29 07:16:16;;;;;;;;;;;;;;;4.85;84.60;97906.31;5089011;28;20300;-75
2022/11/29 07:18:47;;;;;;;;;;;;;;;4.90;84.46;97920.56;5092421;28;19951;-75
2022/11/29 07:21:16;;;;;;;;;;;;;;;4.91;83.97;97910.59;5082191;28;19924;-75
2022/11/29 07:23:45;;;;;;;;;;;;;;;4.91;84.11;97916.00;5074874;28;20336;-75
2022/11/29 07:26:17;;;;;;;;;;;;;;;4.94;84.28;97918.13;5091359;28;20014;-75
2022/11/29 07:28:49;;;;;;;;;;;;;;;4.90;83.84;97914.34;5092889;28;19947;-75
2022/11/29 07:31:18;;;;;;;;;;;;;;;4.85;84.25;97923.28;5088071;28;19932;-75
2022/11/29 07:34:12;;;;;;;;;;;;;;;4.90;84.28;97927.81;5072144;28;19928;-74
2022/11/29 07:36:44;;;;;;;;;;;;;;;4.85;84.34;97919.78;5081258;28;19991;-75
2022/11/29 07:45:28;;;;;;;;;;;;;;;4.99;83.94;97923.50;5086234;28;19924;-75
2022/11/29 07:48:22;;;;;;;;;;;;;;;4.97;84.04;97920.28;5080961;28;19924;-72
2022/11/29 07:50:50;;;;;;;;;;;;;;;4.98;84.56;97927.25;5081583;28;19964;-75
2022/11/29 07:53:21;;;;;;;;;;;;;;;5.01;84.21;97932.13;5082029;28;20704;-75
2022/11/29 07:55:51;;;;;;;;;;;;;;;5.09;84.09;97931.53;5090432;28;19931;-75
2022/11/29 07:58:20;;;;;;;;;;;;;;;5.11;83.69;97931.25;5093158;28;19947;-74
2022/11/29 08:01:14;;;;;;;;;;;;;;;5.12;83.65;97931.00;5089242;28;19928;-75
2022/11/29 08:03:42;;;;;;;;;;;;;;;5.11;83.98;97926.66;5086172;28;19931;-75
2022/11/29 08:06:10;;;;;;;;;;;;;;;5.19;83.54;97934.19;5092838;28;19970;-75
2022/11/29 08:08:40;;;;;;;;;;;;;;;5.19;83.62;97934.19;5108251;28;19931;-75
2022/11/29 08:11:12;;;;;;;;;;;;;;;5.19;83.66;97934.19;5086651;28;20386;-75
2022/11/29 08:13:40;;;;;;;;;;;;;;;5.22;83.66;97939.03;5090110;28;19932;-75
2022/11/29 08:16:15;;;;;;;;;;;;;;;5.25;83.38;97938.47;5089164;28;20366;-73
2022/11/29 08:18:43;;;;;;;;;;;;;;;5.19;83.44;97941.47;5085172;28;19955;-74
2022/11/29 08:21:16;;;;;;;;;;;;;;;5.21;83.71;97945.47;5089681;28;19941;-75
2022/11/29 08:23:46;;;;;;;;;;;;;;;5.23;83.41;97951.41;5083553;28;20293;-75
2022/11/29 08:26:14;;;;;;;;;;;;;;;5.17;83.97;97952.53;5087946;28;19924;-75
2022/11/29 08:28:43;;;;;;;;;;;;;;;5.22;83.92;97949.81;5084475;28;19931;-75
2022/11/29 08:31:12;;;;;;;;;;;;;;;5.27;83.64;97957.03;5081540;28;19928;-75
2022/11/29 08:33:48;;;;;;;;;;;;;;;5.26;84.07;97956.22;5071005;28;19932;-75
2022/11/29 08:36:20;;;;;;;;;;;;;;;5.23;84.02;97956.00;5067606;28;20526;-75
2022/11/29 08:38:50;;;;;;;;;;;;;;;5.24;83.86;97963.00;5084257;28;20015;-75
2022/11/29 08:41:26;;;;;;;;;;;;;;;5.37;83.72;97958.88;5056227;28;19994;-75
2022/11/29 08:43:55;;;;;;;;;;;;;;;5.36;83.82;97960.78;5090625;28;19932;-75
2022/11/29 08:47:34;;;;;;;;;;;;;;;5.39;83.34;97962.13;5071008;28;19925;-74
2022/11/29 08:49:13;;;;;;;;;;;;;;;5.38;83.69;97964.03;5067161;28;19972;-74
2022/11/29 08:51:41;;;;;;;;;;;;;;;5.39;84.09;97965.63;5053691;28;19931;-75
2022/11/29 08:54:10;;;;;;;;;;;;;;;5.45;83.51;97964.53;5072870;28;19932;-74
2022/11/29 08:56:40;;;;;;;;;;;;;;;5.46;83.96;97966.13;5089500;28;20652;-75
2022/11/29 08:59:29;;;;;;;;;;;;;;;5.58;83.53;97971.19;5080152;28;19932;-75
2022/11/29 09:01:57;;;;;;;;;;;;;;;5.64;83.35;97972.75;5085583;28;19925;-74
2022/11/29 09:04:25;;;;;;;;;;;;;;;5.58;83.89;97967.69;5053807;28;19932;-75
2022/11/29 09:06:54;;;;;;;;;;;;;;;5.56;83.50;97975.25;5072540;28;19924;-76
2022/11/29 09:09:24;;;;;;;;;;;;;;;5.51;83.86;97974.19;5053399;28;19924;-71
2022/11/29 09:11:52;;;;;;;;;;;;;;;5.56;83.99;97980.66;5068988;28;19932;-76
2022/11/29 09:14:21;;;;;;;;;;;;;;;5.59;84.08;97977.38;5079870;28;19924;-74
2022/11/29 09:16:49;;;;;;;;;;;;;;;5.70;83.59;97978.94;5069264;28;19924;-75
2022/11/29 09:19:17;;;;;;;;;;;;;;;5.67;83.42;97985.69;5058420;28;19924;-75
2022/11/29 09:21:45;;;;;;;;;;;;;;;5.70;83.22;97992.41;5073634;28;20233;-75
2022/11/29 09:24:15;;;;;;;;;;;;;;;5.66;83.34;98000.28;5059345;28;19924;-75
2022/11/29 09:26:47;;;;;;;;;;;;;;;5.60;83.91;97995.19;5069615;28;19928;-75
2022/11/29 09:29:17;;;;;;;;;;;;;;;5.65;83.57;97995.16;5062559;28;19924;-75
2022/11/29 09:32:10;;;;;;;;;;;;;;;5.66;83.18;97996.78;5089642;28;19932;-75
2022/11/29 09:35:04;;;;;;;;;;;;;;;5.71;83.43;97994.06;5066522;28;20401;-75
2022/11/29 09:37:34;;;;;;;;;;;;;;;5.62;83.60;97991.13;5065231;28;19935;-75
2022/11/29 09:40:31;;;;;;;;;;;;;;;5.74;83.71;97993.47;5076559;28;20411;-75
2022/11/29 09:43:02;;;;;;;;;;;;;;;5.68;83.68;97998.09;5083754;28;20411;-74
2022/11/29 09:45:32;;;;;;;;;;;;;;;5.76;83.19;97997.53;5063323;28;20321;-75
2022/11/29 09:48:04;;;;;;;;;;;;;;;5.65;83.70;97987.06;5048302;28;19931;-75
2022/11/29 09:50:34;;;;;;;;;;;;;;;5.68;83.71;97991.91;5041164;28;19924;-74
2022/11/29 09:53:09;;;;;;;;;;;;;;;5.82;83.31;98002.88;5047022;28;19924;-74
2022/11/29 09:55:41;;;;;;;;;;;;;;;5.79;83.30;97999.66;5054978;28;19987;-75
2022/11/29 09:58:12;;;;;;;;;;;;;;;5.78;83.53;98000.75;5050659;28;19939;-75
2022/11/29 10:06:30;;;;;;;;;;;;;;;5.88;83.46;98007.97;5046251;28;19925;-74
2022/11/29 10:09:02;;;;;;;;;;;;;;;5.86;83.89;98002.06;5067888;28;19935;-74
2022/11/29 10:11:31;;;;;;;;;;;;;;;5.85;83.54;98005.00;5053829;28;19971;-74
2022/11/29 10:14:01;;;;;;;;;;;;;;;5.82;83.44;98002.88;5069086;28;20309;-73
2022/11/29 10:16:35;;;;;;;;;;;;;;;5.89;83.25;98004.19;5059593;28;19924;-74
2022/11/29 10:19:04;;;;;;;;;;;;;;;5.98;82.84;98009.84;5042048;28;19964;-74
2022/11/29 10:21:35;;;;;;;;;;;;;;;6.11;81.60;98001.13;5045649;28;19925;-74
2022/11/29 10:24:04;;;;;;;;;;;;;;;6.03;81.85;98007.13;5050403;28;19976;-74
2022/11/29 10:26:32;;;;;;;;;;;;;;;5.98;82.40;98002.56;5061398;28;20355;-75
2022/11/29 10:29:27;;;;;;;;;;;;;;;5.88;82.46;98009.88;5056337;28;20029;-74
2022/11/29 10:31:58;;;;;;;;;;;;;;;5.90;83.10;98002.28;5066628;28;19965;-75
2022/11/29 10:37:21;;;;;;;;;;;;;;;5.89;83.41;97998.00;5065802;28;19964;-74
2022/11/29 10:40:14;;;;;;;;;;;;;;;5.91;83.59;98009.28;5064024;28;19956;-74
2022/11/29 10:42:48;;;;;;;;;;;;;;;5.93;83.04;98001.78;5060191;28;19989;-75
2022/11/29 10:45:17;;;;;;;;;;;;;;;5.94;83.59;98000.69;5054292;28;20005;-73
2022/11/29 10:47:46;;;;;;;;;;;;;;;5.94;83.35;97998.00;5077605;28;20299;-74
2022/11/29 10:50:16;;;;;;;;;;;;;;;5.86;83.57;97990.44;5068692;28;19935;-74
2022/11/29 10:52:45;;;;;;;;;;;;;;;5.95;83.28;97999.59;5064728;28;20296;-73
2022/11/29 10:55:16;;;;;;;;;;;;;;;5.96;83.36;97990.41;5079483;28;19958;-74
2022/11/29 10:58:02;;;;;;;;;;;;;;;5.98;83.00;98007.94;5082163;28;20387;-74
2022/11/29 11:00:31;;;;;;;;;;;;;;;5.91;82.73;97999.38;5055928;28;19989;-73
2022/11/29 11:03:14;;;;;;;;;;;;;;;6.01;82.51;97999.28;5056851;28;19963;-74
2022/11/29 11:05:43;;;;;;;;;;;;;;;6.06;82.77;98009.22;5073680;28;19954;-74
2022/11/29 11:08:16;;;;;;;;;;;;;;;6.10;82.40;98006.78;5060183;28;19924;-74
2022/11/29 11:10:49;;;;;;;;;;;;;;;6.11;82.38;98011.09;5086241;28;19932;-74
2022/11/29 11:13:22;;;;;;;;;;;;;;;6.06;82.30;98011.94;5066138;28;20419;-74
2022/11/29 11:15:50;;;;;;;;;;;;;;;6.13;82.07;98007.06;5085570;28;19959;-74
2022/11/29 11:18:21;;;;;;;;;;;;;;;6.08;82.07;98003.59;5065711;28;20396;-74
2022/11/29 11:20:53;;;;;;;;;;;;;;;5.97;82.80;98009.03;5096529;28;19981;-73
2022/11/29 11:23:23;;;;;;;;;;;;;;;5.96;83.31;98006.59;5063064;28;19924;-74
2022/11/29 11:25:56;;;;;;;;;;;;;;;6.00;82.87;98010.34;5073800;28;19945;-74
2022/11/29 11:28:32;;;;;;;;;;;;;;;5.98;83.18;98005.25;5089369;28;19923;-74
2022/11/29 11:31:03;;;;;;;;;;;;;;;6.00;82.94;98016.56;5073063;28;20654;-74
2022/11/29 11:33:34;;;;;;;;;;;;;;;6.02;83.31;98016.28;5069141;28;20296;-74
2022/11/29 11:36:26;;;;;;;;;;;;;;;6.03;83.76;98017.91;5079817;28;19966;-74
2022/11/29 11:38:57;;;;;;;;;;;;;;;6.03;83.53;98015.19;5092752;28;19974;-74
2022/11/29 11:42:35;;;;;;;;;;;;;;;6.02;83.54;98021.69;5077206;28;20320;-74
2022/11/29 11:44:22;;;;;;;;;;;;;;;6.06;83.71;98011.94;5066778;28;19959;-74
2022/11/29 11:47:13;;;;;;;;;;;;;;;6.11;83.24;98014.59;5075652;28;19928;-74
2022/11/29 11:49:48;;;;;;;;;;;;;;;6.14;83.41;98016.75;5069120;28;19929;-73
2022/11/29 11:52:16;;;;;;;;;;;;;;;6.18;83.41;98015.13;5055982;28;19924;-74
2022/11/29 11:54:45;;;;;;;;;;;;;;;6.22;83.25;98021.53;5069919;28;20022;-74
2022/11/29 11:57:16;;;;;;;;;;;;;;;6.30;83.28;98012.06;5065016;28;19935;-74
2022/11/29 11:59:47;;;;;;;;;;;;;;;6.33;82.86;98018.78;5062019;28;19946;-74
2022/11/29 12:02:24;;;;;;;;;;;;;;;6.35;82.21;98014.72;5073733;28;19939;-74
2022/11/29 12:04:53;;;;;;;;;;;;;;;6.39;81.98;98012.25;5079698;28;19943;-74
2022/11/29 12:07:22;;;;;;;;;;;;;;;6.38;82.39;98024.13;5071900;28;19963;-74
2022/11/29 12:10:12;;;;;;;;;;;;;;;6.31;82.08;98019.06;5081512;28;19938;-74
2022/11/29 12:12:40;;;;;;;;;;;;;;;6.28;82.16;98015.03;5078438;28;19932;-72
2022/11/29 12:15:15;;;;;;;;;;;;;;;6.33;82.27;98019.56;5081790;28;19960;-74
2022/11/29 12:17:44;;;;;;;;;;;;;;;6.28;81.91;98020.44;5091692;28;19935;-74
2022/11/29 12:20:19;;;;;;;;;;;;;;;6.32;81.96;98026.06;5067638;28;19935;-75
2022/11/29 12:22:51;;;;;;;;;;;;;;;6.31;81.99;98021.75;5089230;28;19931;-74
2022/11/29 12:25:45;;;;;;;;;;;;;;;6.30;82.44;98014.75;5079799;28;19942;-74
2022/11/29 12:28:14;;;;;;;;;;;;;;;6.26;82.33;98022.59;5080807;28;19955;-74
2022/11/29 12:31:14;;;;;;;;;;;;;;;6.27;82.92;98026.91;5081372;28;20466;-74
2022/11/29 12:34:07;;;;;;;;;;;;;;;6.32;82.84;98036.06;5075643;28;19939;-74
2022/11/29 12:36:40;;;;;;;;;;;;;;;6.28;82.57;98031.22;5086166;28;19941;-73
2022/11/29 12:39:13;;;;;;;;;;;;;;;6.29;82.51;98034.72;5088115;28;19939;-74
2022/11/29 12:41:45;;;;;;;;;;;;;;;6.32;82.92;98030.66;5061722;28;19939;-73
2022/11/29 12:47:28;;;;;;;;;;;;;;;6.31;82.58;98037.94;5065741;28;20015;-73
2022/11/29 12:50:10;;;;;;;;;;;;;;;6.31;82.79;98035.25;5074542;28;19974;-74
2022/11/29 12:52:41;;;;;;;;;;;;;;;6.28;82.99;98038.50;5092726;28;19954;-74
2022/11/29 12:55:34;;;;;;;;;;;;;;;6.27;83.10;98045.78;5082689;28;19959;-73
2022/11/29 12:58:03;;;;;;;;;;;;;;;6.25;83.16;98039.06;5081526;28;19942;-73
2022/11/29 13:00:32;;;;;;;;;;;;;;;6.26;83.20;98046.88;5055641;28;19956;-73
2022/11/29 13:03:03;;;;;;;;;;;;;;;6.29;83.22;98045.53;5076757;28;19943;-73
2022/11/29 13:05:39;;;;;;;;;;;;;;;6.29;83.37;98049.03;5066238;28;20030;-74
2022/11/29 13:08:22;;;;;;;;;;;;;;;6.26;83.30;98044.19;5064443;28;19958;-73
2022/11/29 13:10:55;;;;;;;;;;;;;;;6.30;83.13;98050.63;5077184;28;19973;-73
2022/11/29 13:13:26;;;;;;;;;;;;;;;6.25;83.05;98047.16;5073921;28;19962;-73
2022/11/29 13:15:58;;;;;;;;;;;;;;;6.24;83.01;98050.94;5059538;28;19939;-73
2022/11/29 13:18:27;;;;;;;;;;;;;;;6.20;83.38;98056.09;5054177;28;19938;-73
2022/11/29 13:20:57;;;;;;;;;;;;;;;6.25;83.37;98061.47;5083203;28;20020;-73
2022/11/29 13:23:27;;;;;;;;;;;;;;;6.26;83.14;98049.56;5054260;28;19946;-73
2022/11/29 13:26:13;;;;;;;;;;;;;;;6.28;83.45;98054.69;5087914;28;19945;-73
2022/11/29 13:28:42;;;;;;;;;;;;;;;6.23;83.08;98054.72;5086701;28;19941;-73
2022/11/29 13:31:12;;;;;;;;;;;;;;;6.24;83.60;98062.56;5086556;28;19936;-73
2022/11/29 13:34:05;;;;;;;;;;;;;;;6.24;84.00;98056.34;5061286;28;20350;-73
2022/11/29 13:36:38;;;;;;;;;;;;;;;6.22;83.36;98061.19;5071046;28;19976;-73
2022/11/29 13:39:12;;;;;;;;;;;;;;;6.18;83.54;98060.97;5082729;28;19939;-73
2022/11/29 13:41:44;;;;;;;;;;;;;;;6.20;83.49;98056.09;5062057;28;20426;-74
2022/11/29 13:44:14;;;;;;;;;;;;;;;6.20;83.76;98066.88;5062629;28;19989;-73
2022/11/29 13:46:45;;;;;;;;;;;;;;;6.19;83.93;98059.06;5059169;28;19943;-73
2022/11/29 13:49:20;;;;;;;;;;;;;;;6.12;84.21;98064.75;5074744;28;19931;-73
2022/11/29 13:51:49;;;;;;;;;;;;;;;6.09;84.72;98065.34;5070719;28;20032;-73
2022/11/29 13:54:29;;;;;;;;;;;;;;;6.11;84.78;98063.16;5079278;28;19928;-73
2022/11/29 13:57:01;;;;;;;;;;;;;;;6.12;84.78;98063.94;5075977;28;19943;-72
2022/11/29 14:02:26;;;;;;;;;;;;;;;6.01;85.18;98066.69;5089221;28;20028;-73
2022/11/29 14:04:55;;;;;;;;;;;;;;;6.01;85.07;98068.59;5083030;28;19963;-73
2022/11/29 14:07:23;;;;;;;;;;;;;;;6.01;85.22;98079.38;5058939;28;19975;-73
2022/11/29 14:09:57;;;;;;;;;;;;;;;6.10;85.27;98074.22;5060177;28;19942;-73
2022/11/29 14:12:35;;;;;;;;;;;;;;;6.05;85.37;98072.34;5065933;28;20048;-73
2022/11/29 14:15:13;;;;;;;;;;;;;;;6.02;85.42;98078.31;5070481;28;20403;-73
2022/11/29 14:17:49;;;;;;;;;;;;;;;6.02;85.52;98076.44;5079833;28;20317;-73
2022/11/29 14:20:33;;;;;;;;;;;;;;;6.11;85.56;98078.53;5088145;28;19949;-74